Time;durP1;ratioP1;P1;durP2;ratioP2;P2;SDS_P1;SDS_P2;PMS_P1;PMS_P2;Temp;Humidity;BMP_temperature;BMP_pressure;BME280_temperature;BME280_humidity;BME280_pressure;Samples;Min_cycle;Max_cycle;Signal;HPM_P1;HPM_P2
2022/03/21 00:01:00;;;;;;;7.32;6.63;;;23.30;28.00;;;;;;5137409;27;20047;-76
2022/03/21 00:03:28;;;;;;;7.32;6.63;;;23.30;27.90;;;;;;5137341;27;20060;-75
2022/03/21 00:05:56;;;;;;;6.90;6.28;;;23.40;28.00;;;;;;5155850;27;20431;-75
2022/03/21 00:08:24;;;;;;;6.85;6.25;;;23.40;27.90;;;;;;5137274;27;20697;-74
2022/03/21 00:10:51;;;;;;;7.25;6.55;;;23.50;27.90;;;;;;5137092;27;20095;-75
2022/03/21 00:13:18;;;;;;;5.97;5.47;;;23.50;27.80;;;;;;5136683;27;20046;-75
2022/03/21 00:15:45;;;;;;;6.57;5.97;;;23.60;27.80;;;;;;5136924;27;20038;-74
2022/03/21 00:18:13;;;;;;;7.80;7.10;;;23.60;27.70;;;;;;5136960;27;20125;-75
2022/03/21 00:20:41;;;;;;;6.80;6.20;;;23.60;27.70;;;;;;5155771;27;20606;-75
2022/03/21 00:23:07;;;;;;;6.82;6.20;;;23.70;27.70;;;;;;5155507;27;20039;-75
2022/03/21 00:25:32;;;;;;;7.95;5.70;;;23.70;27.70;;;;;;5136947;27;20058;-74
2022/03/21 00:27:58;;;;;;;7.88;6.63;;;23.70;27.70;;;;;;5155505;27;20126;-74
2022/03/21 00:30:24;;;;;;;7.13;6.43;;;23.80;27.70;;;;;;5155395;27;20375;-74
2022/03/21 00:32:50;;;;;;;7.30;6.63;;;23.80;27.70;;;;;;5136692;27;20038;-75
2022/03/21 00:35:16;;;;;;;6.88;6.32;;;23.90;27.70;;;;;;5155591;27;20447;-75
2022/03/21 00:37:44;;;;;;;6.63;6.03;;;23.90;27.60;;;;;;5136870;27;20047;-74
2022/03/21 00:40:11;;;;;;;6.85;6.22;;;23.90;27.60;;;;;;5155138;27;20473;-75
2022/03/21 00:42:38;;;;;;;7.78;7.00;;;23.90;27.60;;;;;;5155226;27;20039;-74
2022/03/21 00:45:06;;;;;;;7.20;6.60;;;24.00;27.60;;;;;;5136780;27;20080;-74
2022/03/21 00:47:32;;;;;;;7.15;6.53;;;24.00;27.50;;;;;;5136288;27;20442;-74
2022/03/21 00:49:58;;;;;;;7.22;6.63;;;24.10;27.50;;;;;;5135817;27;20482;-74
2022/03/21 00:52:24;;;;;;;6.82;6.32;;;24.10;27.50;;;;;;5154716;27;20038;-75
2022/03/21 00:54:50;;;;;;;6.88;6.30;;;24.10;27.40;;;;;;5154785;27;20488;-75
2022/03/21 00:57:15;;;;;;;8.15;6.13;;;24.20;27.40;;;;;;5154352;27;20595;-74
2022/03/21 00:59:44;;;;;;;7.07;6.47;;;24.20;27.30;;;;;;5136101;27;20053;-76
2022/03/21 01:02:10;;;;;;;7.10;6.40;;;24.20;27.40;;;;;;5135550;27;20046;-75
2022/03/21 01:04:36;;;;;;;6.32;5.72;;;24.30;27.40;;;;;;5154081;27;20039;-75
2022/03/21 01:07:03;;;;;;;7.55;6.90;;;24.30;27.40;;;;;;5154405;27;20042;-74
2022/03/21 01:09:29;;;;;;;7.25;6.63;;;24.30;27.40;;;;;;5135286;27;20034;-75
2022/03/21 01:11:55;;;;;;;6.80;6.15;;;24.30;27.40;;;;;;5135535;27;20037;-75
2022/03/21 01:14:20;;;;;;;7.03;6.43;;;24.30;27.40;;;;;;5135808;27;20042;-74
2022/03/21 01:16:46;;;;;;;7.03;6.40;;;24.20;27.50;;;;;;5154608;27;20035;-74
2022/03/21 01:19:13;;;;;;;6.75;6.15;;;24.00;27.60;;;;;;5154734;27;20096;-74
2022/03/21 01:21:38;;;;;;;6.40;5.82;;;24.00;27.80;;;;;;5135785;27;20078;-74
2022/03/21 01:24:04;;;;;;;7.25;6.18;;;23.90;27.80;;;;;;5154284;27;20045;-75
2022/03/21 01:26:30;;;;;;;6.32;5.72;;;23.70;27.80;;;;;;5131983;27;20099;-75
2022/03/21 01:28:57;;;;;;;6.85;6.25;;;23.80;27.90;;;;;;5132163;27;20126;-74
2022/03/21 01:31:23;;;;;;;7.45;6.28;;;23.80;27.90;;;;;;5131962;27;20176;-74
2022/03/21 01:33:49;;;;;;;6.55;5.95;;;23.90;27.80;;;;;;5132197;27;20035;-75
2022/03/21 01:36:14;;;;;;;6.50;5.95;;;24.10;27.80;;;;;;5132224;27;20478;-75
2022/03/21 01:38:46;;;;;;;5.88;5.35;;;24.20;27.60;;;;;;5132238;27;20039;-74
2022/03/21 01:41:12;;;;;;;6.03;5.43;;;24.20;27.50;;;;;;5132061;27;20144;-75
2022/03/21 01:43:58;;;;;;;6.22;5.68;;;24.30;27.50;;;;;;5131949;27;20046;-74
2022/03/21 01:46:25;;;;;;;6.28;5.70;;;24.30;27.50;;;;;;5131991;27;20053;-74
2022/03/21 01:48:50;;;;;;;5.70;5.20;;;24.30;27.40;;;;;;5133151;27;20042;-75
2022/03/21 01:51:16;;;;;;;6.28;5.70;;;24.40;27.40;;;;;;5132065;27;20039;-75
2022/03/21 01:56:30;;;;;;;6.22;5.63;;;24.50;27.30;;;;;;5131790;27;20039;-74
2022/03/21 01:58:56;;;;;;;5.82;5.32;;;24.60;27.20;;;;;;5132987;27;20559;-75
2022/03/21 02:01:25;;;;;;;5.65;5.15;;;24.60;27.20;;;;;;5132855;27;20035;-74
2022/03/21 02:03:52;;;;;;;5.80;5.30;;;24.70;27.10;;;;;;5131500;27;20549;-75
2022/03/21 02:06:17;;;;;;;5.53;5.03;;;24.70;27.10;;;;;;5131765;27;20065;-74
2022/03/21 02:08:44;;;;;;;6.22;5.63;;;24.70;27.70;;;;;;5132786;27;20043;-74
2022/03/21 02:11:10;;;;;;;5.90;5.30;;;24.70;27.00;;;;;;5131624;27;20116;-74
2022/03/21 02:13:37;;;;;;;5.95;5.35;;;24.80;27.00;;;;;;5131290;27;20144;-75
2022/03/21 02:16:04;;;;;;;5.65;5.15;;;24.80;27.00;;;;;;5132809;27;20034;-75
2022/03/21 02:18:31;;;;;;;5.47;4.97;;;24.80;27.00;;;;;;5132759;27;20065;-74
2022/03/21 02:21:00;;;;;;;5.43;4.93;;;24.80;27.00;;;;;;5131500;27;20100;-74
2022/03/21 02:23:39;;;;;;;4.82;4.43;;;24.80;27.00;;;;;;5132158;28;20058;-75
2022/03/21 02:26:08;;;;;;;5.15;4.70;;;24.80;27.00;;;;;;5130929;28;20051;-74
2022/03/21 02:28:34;;;;;;;5.13;4.70;;;24.80;26.90;;;;;;5132019;28;20043;-74
2022/03/21 02:31:00;;;;;;;5.88;5.28;;;24.80;26.90;;;;;;5131042;28;20043;-74
2022/03/21 02:33:29;;;;;;;5.75;5.13;;;24.80;26.90;;;;;;5132104;28;20114;-74
2022/03/21 02:35:56;;;;;;;5.90;5.40;;;24.80;26.90;;;;;;5131240;28;20531;-74
2022/03/21 02:38:25;;;;;;;4.93;4.45;;;24.90;26.90;;;;;;5130241;28;20075;-74
2022/03/21 02:40:51;;;;;;;4.93;4.53;;;24.90;26.90;;;;;;5131247;28;20084;-75
2022/03/21 02:43:16;;;;;;;5.50;5.00;;;24.90;26.90;;;;;;5131148;28;20390;-74
2022/03/21 02:45:42;;;;;;;5.50;5.00;;;24.90;26.90;;;;;;5132838;28;20039;-74
2022/03/21 02:48:09;;;;;;;4.72;4.25;;;24.80;26.80;;;;;;5131151;28;20164;-74
2022/03/21 02:50:41;;;;;;;4.85;4.45;;;24.80;26.80;;;;;;5131155;28;20387;-74
2022/03/21 02:53:09;;;;;;;4.03;3.70;;;24.80;26.80;;;;;;5130983;28;20066;-74
2022/03/21 02:55:35;;;;;;;5.10;4.70;;;24.90;26.80;;;;;;5132333;28;20110;-74
2022/03/21 02:58:02;;;;;;;5.25;4.75;;;24.80;26.70;;;;;;5132288;28;20126;-74
2022/03/21 03:00:31;;;;;;;4.97;4.57;;;24.80;26.80;;;;;;5131047;28;20043;-74
2022/03/21 03:02:56;;;;;;;5.22;4.25;;;24.80;26.80;;;;;;5130409;28;20482;-75
2022/03/21 03:05:22;;;;;;;5.35;4.93;;;24.80;26.80;;;;;;5132149;28;20130;-73
2022/03/21 03:07:48;;;;;;;4.32;4.03;;;24.90;26.80;;;;;;5130998;28;20036;-74
2022/03/21 03:10:13;;;;;;;5.32;4.82;;;24.80;26.70;;;;;;5131131;28;20244;-75
2022/03/21 03:12:40;;;;;;;4.35;3.97;;;24.90;26.70;;;;;;5131286;28;20047;-74
2022/03/21 03:15:06;;;;;;;4.80;4.40;;;24.90;26.70;;;;;;5130775;28;20043;-74
2022/03/21 03:17:32;;;;;;;4.68;4.28;;;24.90;26.70;;;;;;5132399;28;20047;-73
2022/03/21 03:19:58;;;;;;;4.68;4.18;;;24.90;26.70;;;;;;5131171;28;20050;-73
2022/03/21 03:22:25;;;;;;;4.53;4.13;;;25.00;26.70;;;;;;5132344;28;20114;-73
2022/03/21 03:24:52;;;;;;;4.45;4.05;;;25.00;26.50;;;;;;5130560;28;20070;-74
2022/03/21 03:27:17;;;;;;;4.07;3.67;;;25.10;26.50;;;;;;5130691;28;20047;-73
2022/03/21 03:29:43;;;;;;;4.22;3.83;;;25.20;26.40;;;;;;5132223;28;20087;-74
2022/03/21 03:32:09;;;;;;;3.88;3.47;;;25.30;26.30;;;;;;5132332;27;20118;-74
2022/03/21 03:34:35;;;;;;;4.50;4.10;;;25.40;26.20;;;;;;5135423;27;20039;-74
2022/03/21 03:37:02;;;;;;;4.38;4.00;;;25.40;26.20;;;;;;5136373;27;20024;-74
2022/03/21 03:39:28;;;;;;;4.32;3.90;;;25.50;26.20;;;;;;5134565;27;20424;-74
2022/03/21 03:41:54;;;;;;;4.38;3.97;;;25.50;26.20;;;;;;5135698;27;20043;-74
2022/03/21 03:44:22;;;;;;;3.90;3.53;;;25.40;26.10;;;;;;5134392;27;20470;-75
2022/03/21 03:46:48;;;;;;;4.32;3.55;;;25.30;26.10;;;;;;5134409;27;20046;-75
2022/03/21 03:49:14;;;;;;;3.65;3.35;;;25.30;26.20;;;;;;5135577;27;20031;-74
2022/03/21 03:51:40;;;;;;;3.78;3.42;;;25.20;26.20;;;;;;5134440;27;20382;-74
2022/03/21 03:54:05;;;;;;;3.70;3.40;;;25.20;26.30;;;;;;5133957;27;20092;-75
2022/03/21 03:56:31;;;;;;;4.15;3.80;;;25.10;26.30;;;;;;5134281;27;20047;-74
2022/03/21 03:58:56;;;;;;;3.35;3.03;;;25.00;26.40;;;;;;5133904;27;20043;-74
2022/03/21 04:01:22;;;;;;;3.75;3.40;;;25.00;26.40;;;;;;5134321;27;20047;-74
2022/03/21 04:03:48;;;;;;;3.17;2.80;;;24.90;26.40;;;;;;5135313;27;20101;-75
2022/03/21 04:06:17;;;;;;;4.00;2.75;;;24.80;26.40;;;;;;5133974;27;20091;-75
2022/03/21 04:08:44;;;;;;;3.58;3.15;;;24.80;26.50;;;;;;5135147;27;20052;-75
2022/03/21 04:11:10;;;;;;;3.25;2.95;;;24.80;26.50;;;;;;5134181;27;20043;-75
2022/03/21 04:13:36;;;;;;;3.50;3.20;;;24.80;26.50;;;;;;5134827;27;20168;-75
2022/03/21 04:16:05;;;;;;;4.18;3.40;;;24.80;26.50;;;;;;5134697;27;20042;-74
2022/03/21 04:18:31;;;;;;;3.40;3.10;;;24.80;26.50;;;;;;5133819;27;20039;-75
2022/03/21 04:20:57;;;;;;;2.70;2.42;;;24.80;26.50;;;;;;5133665;27;20050;-74
2022/03/21 04:23:25;;;;;;;3.17;2.90;;;24.90;26.50;;;;;;5133562;27;20059;-75
2022/03/21 04:25:51;;;;;;;3.58;3.20;;;24.90;26.40;;;;;;5133189;27;20047;-74
2022/03/21 04:28:17;;;;;;;2.70;2.50;;;24.90;26.30;;;;;;5133464;27;20111;-74
2022/03/21 04:30:43;;;;;;;3.20;2.90;;;25.00;26.40;;;;;;5134900;27;20046;-75
2022/03/21 04:33:10;;;;;;;3.25;2.90;;;25.00;26.30;;;;;;5133483;27;20051;-75
2022/03/21 04:35:37;;;;;;;3.20;2.70;;;25.00;26.30;;;;;;5134601;27;20527;-75
2022/03/21 04:38:04;;;;;;;3.13;2.80;;;25.00;26.30;;;;;;5134767;27;20030;-75
2022/03/21 04:40:29;;;;;;;3.38;2.55;;;25.00;26.20;;;;;;5133589;27;20114;-75
2022/03/21 04:42:55;;;;;;;2.92;2.70;;;25.00;26.20;;;;;;5134381;27;20130;-75
2022/03/21 04:45:21;;;;;;;2.70;2.45;;;25.10;26.20;;;;;;5133119;27;20043;-75
2022/03/21 04:47:46;;;;;;;2.58;2.20;;;25.00;26.10;;;;;;5133032;27;20059;-75
2022/03/21 04:50:18;;;;;;;3.13;2.58;;;25.00;26.10;;;;;;5134352;27;20080;-74
2022/03/21 04:52:44;;;;;;;2.92;2.67;;;25.10;26.20;;;;;;5134419;27;20091;-75
2022/03/21 04:55:09;;;;;;;2.20;1.90;;;25.00;26.20;;;;;;5132667;27;20486;-74
2022/03/21 04:57:35;;;;;;;2.40;2.20;;;24.90;26.20;;;;;;5133198;27;20091;-75
2022/03/21 05:00:03;;;;;;;3.28;2.63;;;24.90;26.20;;;;;;5133957;27;20023;-75
2022/03/21 05:02:29;;;;;;;2.63;2.42;;;24.90;26.20;;;;;;5132745;27;20485;-75
2022/03/21 05:04:55;;;;;;;2.45;2.08;;;24.90;26.20;;;;;;5132873;27;20043;-75
2022/03/21 05:07:20;;;;;;;2.63;2.42;;;24.90;26.20;;;;;;5134059;27;20032;-74
2022/03/21 05:09:47;;;;;;;2.63;2.22;;;24.90;26.20;;;;;;5134245;27;20036;-75
2022/03/21 05:12:15;;;;;;;3.05;2.10;;;24.80;26.20;;;;;;5132894;27;20084;-75
2022/03/21 05:14:40;;;;;;;2.58;2.38;;;24.80;26.20;;;;;;5132223;27;20509;-75
2022/03/21 05:17:09;;;;;;;2.50;2.30;;;24.80;26.20;;;;;;5132488;27;20082;-75
2022/03/21 05:19:36;;;;;;;2.88;2.38;;;24.80;26.20;;;;;;5133558;27;20046;-75
2022/03/21 05:22:04;;;;;;;2.20;2.00;;;24.80;26.20;;;;;;5132617;27;20035;-74
2022/03/21 05:35:52;;;;;;;2.30;2.10;;;24.70;26.20;;;;;;5131958;27;20482;-75
2022/03/21 05:35:56;;;;;;;3.15;2.20;;;24.70;26.10;;;;;;5132851;27;20479;-75
2022/03/21 05:38:23;;;;;;;1.75;1.65;;;24.80;26.20;;;;;;5132401;27;20372;-74
2022/03/21 05:40:49;;;;;;;2.13;1.60;;;24.70;26.10;;;;;;5132010;27;20081;-74
2022/03/21 05:43:15;;;;;;;2.38;2.08;;;24.80;26.10;;;;;;5132572;27;20144;-75
2022/03/21 05:45:41;;;;;;;2.30;1.85;;;24.80;26.00;;;;;;5131711;27;20078;-74
2022/03/21 05:50:52;;;;;;;2.50;1.60;;;24.80;26.00;;;;;;5132861;27;20489;-75
2022/03/21 05:53:21;;;;;;;1.45;1.20;;;24.80;26.00;;;;;;5133498;27;20119;-75
2022/03/21 05:55:46;;;;;;;2.25;1.50;;;24.80;26.00;;;;;;5132295;27;20132;-75
2022/03/21 05:58:12;;;;;;;1.65;1.10;;;24.80;26.00;;;;;;5133187;27;20484;-75
2022/03/21 06:00:39;;;;;;;1.77;1.67;;;24.70;25.90;;;;;;5132826;27;20058;-74
2022/03/21 06:03:08;;;;;;;1.55;1.30;;;24.80;26.00;;;;;;5133166;27;20043;-74
2022/03/21 06:05:35;;;;;;;2.25;1.08;;;24.80;25.90;;;;;;5132881;27;20093;-74
2022/03/21 06:08:03;;;;;;;2.25;1.35;;;24.80;25.90;;;;;;5131921;27;20046;-74
2022/03/21 06:10:29;;;;;;;1.27;1.17;;;24.70;25.90;;;;;;5131905;27;20047;-75
2022/03/21 06:12:55;;;;;;;2.03;1.25;;;24.70;25.90;;;;;;5131568;27;20046;-74
2022/03/21 06:15:21;;;;;;;1.83;1.30;;;24.70;26.00;;;;;;5131571;27;20043;-74
2022/03/21 06:17:47;;;;;;;1.70;1.35;;;24.70;25.90;;;;;;5131269;27;20046;-74
2022/03/21 06:20:15;;;;;;;1.50;1.00;;;24.70;25.90;;;;;;5132196;27;20118;-75
2022/03/21 06:22:41;;;;;;;0.95;0.85;;;24.70;25.90;;;;;;5131155;27;20038;-75
2022/03/21 06:25:09;;;;;;;4.05;1.17;;;24.70;26.00;;;;;;5129471;27;20418;-78
2022/03/21 06:27:41;;;;;;;2.55;1.05;;;24.70;26.00;;;;;;5134401;27;20047;-79
2022/03/21 06:30:08;;;;;;;5.30;1.50;;;24.50;26.80;;;;;;5151724;27;20393;-78
2022/03/21 06:32:37;;;;;;;1.27;1.00;;;24.10;27.40;;;;;;5151400;27;20043;-76
2022/03/21 06:35:04;;;;;;;3.25;1.45;;;23.80;27.80;;;;;;5133049;27;20076;-80
2022/03/21 06:37:32;;;;;;;7.13;1.52;;;23.50;28.20;;;;;;5150213;27;20041;-74
2022/03/21 06:39:58;;;;;;;1.73;0.82;;;23.40;28.40;;;;;;5132842;27;20042;-73
2022/03/21 06:42:23;;;;;;;2.55;0.90;;;23.30;28.60;;;;;;5132791;27;20425;-74
2022/03/21 06:44:50;;;;;;;3.97;0.77;;;23.30;28.70;;;;;;5149820;27;20049;-74
2022/03/21 06:47:17;;;;;;;1.65;0.95;;;23.30;28.80;;;;;;5134123;27;20542;-75
2022/03/21 06:49:43;;;;;;;2.55;0.90;;;23.30;28.80;;;;;;5133078;27;20045;-75
2022/03/21 06:52:09;;;;;;;2.63;0.85;;;23.30;28.70;;;;;;5130362;27;20051;-74
2022/03/21 06:54:36;;;;;;;2.03;0.98;;;23.30;28.80;;;;;;5129524;27;20033;-73
2022/03/21 06:57:02;;;;;;;1.25;0.80;;;23.30;28.90;;;;;;5127540;27;20125;-75
2022/03/21 06:59:29;;;;;;;2.10;0.63;;;23.30;29.10;;;;;;5131172;27;20520;-75
2022/03/21 07:01:56;;;;;;;0.95;0.50;;;23.20;29.30;;;;;;5127090;28;20081;-74
2022/03/21 07:04:23;;;;;;;0.80;0.60;;;23.30;29.30;;;;;;5111532;27;20039;-73
2022/03/21 07:06:50;;;;;;;2.50;0.50;;;23.30;29.20;;;;;;5119786;27;20035;-74
2022/03/21 07:09:15;;;;;;;3.05;0.60;;;23.40;29.20;;;;;;5125150;27;20039;-74
2022/03/21 07:11:41;;;;;;;1.70;0.63;;;23.40;29.30;;;;;;5119086;27;20102;-74
2022/03/21 07:14:06;;;;;;;1.48;0.77;;;23.40;29.30;;;;;;5127024;27;20590;-74
2022/03/21 07:16:32;;;;;;;2.63;0.57;;;23.40;29.30;;;;;;5119008;27;20039;-76
2022/03/21 07:18:58;;;;;;;2.50;0.50;;;23.50;29.20;;;;;;5127185;27;20075;-74
2022/03/21 07:21:24;;;;;;;3.42;1.00;;;23.70;29.10;;;;;;5128806;27;20046;-74
2022/03/21 07:23:50;;;;;;;1.25;0.70;;;23.70;29.10;;;;;;5126703;27;20111;-75
2022/03/21 07:26:16;;;;;;;0.70;0.60;;;23.80;29.20;;;;;;5128559;27;20050;-75
2022/03/21 07:28:42;;;;;;;1.75;0.60;;;23.80;29.20;;;;;;5130666;27;20130;-75
2022/03/21 07:31:11;;;;;;;1.30;0.60;;;23.70;29.30;;;;;;5133566;27;20034;-78
2022/03/21 07:33:38;;;;;;;0.98;0.77;;;23.70;29.40;;;;;;5117300;27;20043;-79
2022/03/21 07:36:04;;;;;;;2.13;1.50;;;23.70;29.40;;;;;;5143142;27;20440;-76
2022/03/21 07:38:30;;;;;;;3.50;2.20;;;23.60;29.70;;;;;;5133367;27;20038;-78
2022/03/21 07:40:57;;;;;;;3.33;2.83;;;23.50;29.80;;;;;;5120106;27;20038;-77
2022/03/21 07:43:23;;;;;;;12.68;3.40;;;23.30;30.00;;;;;;5103431;27;20153;-78
2022/03/21 07:48:34;;;;;;;5.22;3.95;;;23.10;31.30;;;;;;5123806;27;20440;-77
2022/03/21 07:51:00;;;;;;;2.95;2.55;;;22.90;31.40;;;;;;5118206;27;20031;-73
2022/03/21 07:53:26;;;;;;;4.18;1.73;;;22.80;31.70;;;;;;5119396;27;20042;-78
2022/03/21 07:55:52;;;;;;;4.28;2.25;;;22.70;32.00;;;;;;5122722;27;20038;-77
2022/03/21 07:58:17;;;;;;;3.55;1.35;;;22.70;32.00;;;;;;5126224;27;20054;-80
2022/03/21 08:00:44;;;;;;;3.85;1.45;;;22.90;31.80;;;;;;5120508;27;20034;-83
2022/03/21 08:03:14;;;;;;;2.38;1.35;;;23.10;31.80;;;;;;5114369;27;20094;-76
2022/03/21 08:05:40;;;;;;;4.60;1.65;;;23.20;31.70;;;;;;5115637;27;20163;-75
2022/03/21 08:08:07;;;;;;;4.22;1.30;;;23.40;31.50;;;;;;5112145;27;20080;-72
2022/03/21 08:10:36;;;;;;;2.13;1.05;;;23.50;31.40;;;;;;5122123;27;20123;-76
2022/03/21 08:13:05;;;;;;;1.85;1.17;;;23.50;31.30;;;;;;5117891;27;20508;-79
2022/03/21 08:15:35;;;;;;;2.00;1.35;;;23.60;31.40;;;;;;5117050;27;20160;-77
2022/03/21 08:18:03;;;;;;;3.33;1.70;;;23.50;31.40;;;;;;5128252;27;20260;-78
2022/03/21 08:20:33;;;;;;;2.25;1.35;;;23.50;31.70;;;;;;5128496;27;20039;-79
2022/03/21 08:23:00;;;;;;;3.00;1.40;;;23.40;31.80;;;;;;5109441;27;20042;-75
2022/03/21 08:25:27;;;;;;;2.63;1.67;;;23.30;31.90;;;;;;5113323;27;20510;-79
2022/03/21 08:27:54;;;;;;;5.03;1.60;;;23.20;32.20;;;;;;5114892;27;20035;-80
2022/03/21 08:30:19;;;;;;;6.35;1.92;;;23.10;32.40;;;;;;5112141;27;20429;-80
2022/03/21 08:32:46;;;;;;;5.40;1.77;;;23.00;32.70;;;;;;5114392;27;20046;-85
2022/03/21 08:35:12;;;;;;;1.38;0.98;;;23.00;33.10;;;;;;5112287;27;20042;-78
2022/03/21 08:37:39;;;;;;;5.25;1.60;;;22.80;33.50;;;;;;5118968;27;20092;-80
2022/03/21 08:40:06;;;;;;;6.07;1.48;;;22.70;33.90;;;;;;5118121;27;20070;-77
2022/03/21 08:42:32;;;;;;;2.47;0.90;;;22.60;34.10;;;;;;5119767;27;20628;-77
2022/03/21 08:44:58;;;;;;;2.92;1.52;;;22.50;34.40;;;;;;5112177;27;20044;-77
2022/03/21 08:47:24;;;;;;;5.63;1.67;;;22.30;34.50;;;;;;5130795;27;20039;-72
2022/03/21 08:49:50;;;;;;;2.30;1.00;;;22.20;34.70;;;;;;5127569;27;20503;-72
2022/03/21 08:52:19;;;;;;;4.38;1.13;;;22.10;35.00;;;;;;5113443;27;20039;-70
2022/03/21 08:54:45;;;;;;;2.88;1.15;;;22.00;35.30;;;;;;5127947;27;20049;-69
2022/03/21 08:57:11;;;;;;;3.00;1.42;;;21.90;35.50;;;;;;5131567;27;20039;-72
2022/03/21 08:59:37;;;;;;;6.35;1.33;;;21.90;35.70;;;;;;5119407;27;20267;-74
2022/03/21 09:02:04;;;;;;;7.43;2.10;;;21.70;35.90;;;;;;5116463;27;20578;-72
2022/03/21 09:04:30;;;;;;;3.88;1.70;;;21.60;36.00;;;;;;5109542;27;20453;-75
2022/03/21 09:06:56;;;;;;;3.67;1.50;;;21.50;36.20;;;;;;5115969;27;20049;-70
2022/03/21 09:09:21;;;;;;;2.78;1.35;;;21.40;36.30;;;;;;5115199;27;20401;-75
2022/03/21 09:11:48;;;;;;;4.28;1.52;;;21.30;36.50;;;;;;5115015;27;20035;-78
2022/03/21 09:14:14;;;;;;;5.97;1.65;;;21.20;36.70;;;;;;5114348;27;20045;-78
2022/03/21 09:16:42;;;;;;;4.75;2.00;;;21.20;37.00;;;;;;5121445;27;20049;-72
2022/03/21 09:19:09;;;;;;;3.78;1.70;;;21.00;37.30;;;;;;5111745;27;20050;-77
2022/03/21 09:21:35;;;;;;;4.20;2.10;;;21.00;37.50;;;;;;5113300;27;20544;-77
2022/03/21 09:24:02;;;;;;;7.22;1.60;;;20.80;37.80;;;;;;5114322;27;20042;-75
2022/03/21 09:26:28;;;;;;;6.00;2.28;;;20.70;38.00;;;;;;5122268;27;20059;-78
2022/03/21 09:29:03;;;;;;;4.03;2.90;;;20.70;38.30;;;;;;5121053;27;20397;-78
2022/03/21 09:31:29;;;;;;;5.38;2.30;;;20.60;38.70;;;;;;5113219;27;20696;-80
2022/03/21 09:33:55;;;;;;;5.70;2.20;;;20.50;38.90;;;;;;5112045;27;20042;-77
2022/03/21 09:36:21;;;;;;;4.53;1.70;;;20.50;39.20;;;;;;5137977;27;20393;-81
2022/03/21 09:38:48;;;;;;;8.10;1.98;;;20.40;39.60;;;;;;5122226;27;20038;-79
2022/03/21 09:41:14;;;;;;;7.32;3.70;;;20.30;39.70;;;;;;5133812;27;20107;-79
2022/03/21 09:43:40;;;;;;;11.43;4.70;;;20.30;39.70;;;;;;5133451;27;21034;-80
2022/03/21 09:46:08;;;;;;;9.55;5.20;;;20.20;39.60;;;;;;5125974;27;20054;-79
2022/03/21 09:48:34;;;;;;;5.80;3.38;;;20.10;39.50;;;;;;5122159;27;20043;-74
2022/03/21 09:51:03;;;;;;;8.35;3.65;;;20.10;39.50;;;;;;5105174;27;20386;-72
2022/03/21 09:53:29;;;;;;;5.38;3.30;;;20.10;39.50;;;;;;5120213;27;20035;-77
2022/03/21 09:55:55;;;;;;;3.58;2.45;;;20.00;39.40;;;;;;5114625;27;20118;-74
2022/03/21 09:58:22;;;;;;;4.90;3.00;;;20.00;39.60;;;;;;5121351;27;20054;-76
2022/03/21 10:00:49;;;;;;;3.80;1.95;;;20.00;39.70;;;;;;5131421;27;20042;-80
2022/03/21 10:03:16;;;;;;;6.22;2.25;;;20.00;40.40;;;;;;5121262;27;20526;-74
2022/03/21 10:05:46;;;;;;;6.28;2.30;;;20.10;39.60;;;;;;5131005;27;20535;-74
2022/03/21 10:08:21;;;;;;;4.85;2.45;;;20.10;39.50;;;;;;5125135;27;21165;-75
2022/03/21 10:10:59;;;;;;;7.97;2.83;;;20.10;39.40;;;;;;5113613;27;20066;-75
2022/03/21 10:13:29;;;;;;;10.55;2.83;;;20.20;39.30;;;;;;5111191;27;20122;-78
2022/03/21 10:21:32;;;;;;;4.10;2.60;;;20.30;39.40;;;;;;5056562;27;20441;-81
2022/03/21 10:26:42;;;;;;;10.73;2.60;;;20.30;39.20;;;;;;5055681;27;20463;-79
2022/03/21 10:29:10;;;;;;;4.45;2.75;;;20.30;39.50;;;;;;5069681;28;20049;-79
2022/03/21 10:34:23;;;;;;;3.78;2.25;;;20.40;39.40;;;;;;5097980;27;20488;-77
2022/03/21 10:39:50;;;;;;;4.78;2.25;;;20.40;39.20;;;;;;5099670;27;20437;-78
2022/03/21 10:42:16;;;;;;;3.97;2.20;;;20.40;39.90;;;;;;5097549;28;20152;-76
2022/03/21 10:44:54;;;;;;;2.80;1.92;;;20.40;39.10;;;;;;5086339;28;20418;-78
2022/03/21 10:47:19;;;;;;;4.68;2.72;;;20.40;39.20;;;;;;5098726;28;20055;-80
2022/03/21 10:49:45;;;;;;;4.82;2.58;;;20.40;39.20;;;;;;5086813;28;20043;-76
2022/03/21 10:52:19;;;;;;;4.18;2.30;;;20.30;39.10;;;;;;5108790;28;20161;-77
2022/03/21 10:54:48;;;;;;;5.60;2.42;;;20.30;39.20;;;;;;5104897;28;20046;-75
2022/03/21 10:57:36;;;;;;;2.55;2.20;;;20.30;39.20;;;;;;5091402;28;20036;-77
2022/03/21 11:00:28;;;;;;;2.90;1.83;;;20.30;39.20;;;;;;5090610;28;20037;-77
2022/03/21 11:03:05;;;;;;;3.28;2.08;;;20.30;39.10;;;;;;5109720;28;20043;-77
2022/03/21 11:05:34;;;;;;;6.10;2.13;;;20.30;39.20;;;;;;5103567;28;20051;-76
2022/03/21 11:08:01;;;;;;;5.07;2.50;;;20.20;39.10;;;;;;5108516;28;20055;-77
2022/03/21 11:10:28;;;;;;;4.03;2.53;;;20.30;39.20;;;;;;5093002;28;20078;-79
2022/03/21 11:12:57;;;;;;;3.13;2.15;;;20.20;39.20;;;;;;5107139;28;20499;-82
2022/03/21 11:15:23;;;;;;;3.58;2.08;;;20.30;39.30;;;;;;5093258;28;20048;-77
2022/03/21 11:17:49;;;;;;;5.55;2.03;;;20.30;39.30;;;;;;5107196;28;20052;-76
2022/03/21 11:20:15;;;;;;;5.75;3.17;;;20.30;39.40;;;;;;5095926;28;20036;-71
2022/03/21 11:22:42;;;;;;;5.78;3.63;;;20.20;39.50;;;;;;5096149;28;20459;-72
2022/03/21 11:25:14;;;;;;;6.78;4.18;;;20.20;39.50;;;;;;5105593;28;20063;-72
2022/03/21 11:33:40;;;;;;;8.50;4.45;;;20.10;39.10;;;;;;5063925;28;20417;-73
2022/03/21 11:36:08;;;;;;;5.57;4.30;;;20.10;39.10;;;;;;5055375;28;20553;-75
2022/03/21 11:38:41;;;;;;;8.43;4.22;;;20.00;39.20;;;;;;5053196;28;20037;-73
2022/03/21 11:41:26;;;;;;;5.20;4.70;;;20.00;39.10;;;;;;5053397;28;20415;-82
2022/03/21 11:46:50;;;;;;;6.88;3.70;;;19.90;39.00;;;;;;5099965;27;20395;-74
2022/03/21 11:52:00;;;;;;;6.25;3.17;;;19.90;39.20;;;;;;5109794;27;20487;-77
2022/03/21 11:54:32;;;;;;;6.10;3.05;;;19.90;40.10;;;;;;5114539;28;20051;-73
2022/03/21 12:05:10;;;;;;;4.32;2.45;;;19.90;39.60;;;;;;5112002;27;20802;-77
2022/03/21 12:07:38;;;;;;;5.82;3.50;;;19.90;39.60;;;;;;5103029;28;20071;-77
2022/03/21 12:10:08;;;;;;;5.88;3.08;;;19.90;39.60;;;;;;5103278;28;20572;-77
2022/03/21 12:15:31;;;;;;;7.00;3.88;;;19.80;39.50;;;;;;5111014;27;20351;-77
2022/03/21 12:17:57;;;;;;;7.90;2.92;;;19.80;39.60;;;;;;5097040;28;20505;-80
2022/03/21 12:20:23;;;;;;;5.75;3.40;;;19.80;39.50;;;;;;5094199;28;20044;-75
2022/03/21 12:23:00;;;;;;;10.27;4.05;;;19.80;39.60;;;;;;5096729;28;20117;-77
2022/03/21 12:31:29;;;;;;;7.20;3.33;;;19.70;39.50;;;;;;5057879;28;20051;-75
2022/03/21 12:34:34;;;;;;;4.43;2.83;;;19.70;39.50;;;;;;5067018;28;20750;-75
2022/03/21 12:37:24;;;;;;;3.63;2.33;;;19.70;39.50;;;;;;5066079;28;20196;-70
2022/03/21 12:39:53;;;;;;;4.32;3.30;;;19.70;39.50;;;;;;5044730;28;20057;-78
2022/03/21 12:42:21;;;;;;;5.95;3.22;;;19.70;39.40;;;;;;5056576;28;20496;-74
2022/03/21 12:44:47;;;;;;;6.25;3.65;;;19.70;39.40;;;;;;5046579;28;20040;-73
2022/03/21 12:47:12;;;;;;;4.03;2.63;;;19.70;39.30;;;;;;5068670;28;20041;-73
2022/03/21 12:49:53;;;;;;;8.85;2.65;;;19.80;39.30;;;;;;5049190;28;20058;-74
2022/03/21 12:52:28;;;;;;;3.30;2.58;;;19.90;39.20;;;;;;5059781;28;20066;-69
2022/03/21 12:55:00;;;;;;;8.93;3.80;;;19.90;39.80;;;;;;5068125;28;20707;-71
2022/03/21 12:57:27;;;;;;;9.52;3.08;;;20.00;39.00;;;;;;5057324;28;20063;-72
2022/03/21 12:59:53;;;;;;;6.00;3.22;;;20.00;38.90;;;;;;5052828;28;20098;-71
2022/03/21 13:02:26;;;;;;;5.97;3.25;;;20.10;38.80;;;;;;5052396;28;20698;-73
2022/03/21 13:10:39;;;;;;;10.98;4.82;;;20.20;38.70;;;;;;5051272;28;20131;-77
2022/03/21 13:13:05;;;;;;;7.10;4.40;;;20.20;38.60;;;;;;5055823;28;20182;-79
2022/03/21 13:15:33;;;;;;;6.95;3.60;;;20.20;38.60;;;;;;5045583;28;20037;-73
2022/03/21 13:18:08;;;;;;;9.43;4.07;;;20.30;38.70;;;;;;5046917;28;20036;-77
2022/03/21 13:20:40;;;;;;;7.53;4.53;;;20.30;38.70;;;;;;5054485;28;20446;-80
2022/03/21 13:23:06;;;;;;;5.47;3.30;;;20.30;38.70;;;;;;5048521;28;20041;-75
2022/03/21 13:28:14;;;;;;;8.35;3.63;;;20.40;38.70;;;;;;5114438;27;1180843;-73
2022/03/21 13:33:37;;;;;;;7.88;3.92;;;20.40;38.70;;;;;;5091365;27;20478;-73
2022/03/21 13:36:05;;;;;;;6.78;4.15;;;20.50;38.70;;;;;;5086900;28;20047;-74
2022/03/21 13:38:34;;;;;;;10.73;4.72;;;20.50;38.80;;;;;;5096090;28;20513;-73
2022/03/21 13:41:00;;;;;;;6.68;3.70;;;20.50;38.70;;;;;;5086963;28;20047;-72
2022/03/21 13:43:28;;;;;;;7.45;4.53;;;20.50;38.70;;;;;;5093423;28;20587;-77
2022/03/21 13:45:57;;;;;;;6.88;4.28;;;20.60;38.80;;;;;;5105149;27;20040;-73
2022/03/21 13:48:43;;;;;;;6.85;4.10;;;20.60;38.70;;;;;;5093132;28;20648;-75
2022/03/21 13:51:26;;;;;;;7.47;4.53;;;20.60;38.80;;;;;;5103128;27;20101;-72
2022/03/21 13:54:13;;;;;;;7.85;3.78;;;20.60;38.80;;;;;;5106223;27;20032;-79
2022/03/21 13:56:39;;;;;;;8.30;3.67;;;20.70;38.80;;;;;;5106160;27;20036;-80
2022/03/21 14:01:52;;;;;;;8.93;4.28;;;20.70;39.00;;;;;;5090888;27;20250;-80